sensor_id;sensor_type;location;lat;lon;timestamp;pressure;altitude;pressure_sealevel;temperature;humidity
57801;BME280;43627;42.728;23.256;2023-05-23T00:01:05;94863.53;;;11.33;100.00
57801;BME280;43627;42.728;23.256;2023-05-23T00:03:34;94853.84;;;11.32;100.00
57801;BME280;43627;42.728;23.256;2023-05-23T00:06:04;94865.66;;;10.99;100.00
57801;BME280;43627;42.728;23.256;2023-05-23T00:08:31;94867.66;;;10.90;100.00
57801;BME280;43627;42.728;23.256;2023-05-23T00:10:58;94878.00;;;10.85;100.00
57801;BME280;43627;42.728;23.256;2023-05-23T00:13:24;94880.16;;;10.81;100.00
57801;BME280;43627;42.728;23.256;2023-05-23T00:15:52;94869.88;;;10.76;100.00
57801;BME280;43627;42.728;23.256;2023-05-23T00:18:18;94863.88;;;10.72;100.00
57801;BME280;43627;42.728;23.256;2023-05-23T00:20:47;94873.44;;;10.68;100.00
57801;BME280;43627;42.728;23.256;2023-05-23T00:23:14;94857.41;;;10.61;100.00
57801;BME280;43627;42.728;23.256;2023-05-23T00:25:45;94868.63;;;10.63;100.00
57801;BME280;43627;42.728;23.256;2023-05-23T00:28:18;94879.00;;;10.73;100.00
57801;BME280;43627;42.728;23.256;2023-05-23T00:30:45;94867.16;;;10.76;100.00
57801;BME280;43627;42.728;23.256;2023-05-23T00:33:12;94857.53;;;10.66;100.00
57801;BME280;43627;42.728;23.256;2023-05-23T00:35:40;94860.66;;;10.74;100.00
57801;BME280;43627;42.728;23.256;2023-05-23T00:38:08;94871.88;;;10.76;100.00
57801;BME280;43627;42.728;23.256;2023-05-23T00:40:37;94879.56;;;10.77;100.00
57801;BME280;43627;42.728;23.256;2023-05-23T00:43:03;94880.97;;;10.73;100.00
57801;BME280;43627;42.728;23.256;2023-05-23T00:45:30;94873.63;;;10.64;100.00
57801;BME280;43627;42.728;23.256;2023-05-23T00:47:57;94871.22;;;10.57;100.00
57801;BME280;43627;42.728;23.256;2023-05-23T00:50:26;94872.22;;;10.45;100.00
57801;BME280;43627;42.728;23.256;2023-05-23T00:52:57;94874.66;;;10.43;100.00
57801;BME280;43627;42.728;23.256;2023-05-23T00:55:26;94877.09;;;10.32;100.00
57801;BME280;43627;42.728;23.256;2023-05-23T00:57:54;94873.53;;;10.16;100.00
57801;BME280;43627;42.728;23.256;2023-05-23T01:00:24;94874.81;;;9.97;100.00
57801;BME280;43627;42.728;23.256;2023-05-23T01:02:51;94874.75;;;9.73;100.00
57801;BME280;43627;42.728;23.256;2023-05-23T01:05:19;94872.97;;;9.61;100.00
57801;BME280;43627;42.728;23.256;2023-05-23T01:07:49;94878.69;;;9.72;100.00
57801;BME280;43627;42.728;23.256;2023-05-23T01:10:20;94873.41;;;9.68;100.00
57801;BME280;43627;42.728;23.256;2023-05-23T01:16:04;94872.53;;;9.53;100.00
57801;BME280;43627;42.728;23.256;2023-05-23T01:18:44;94855.47;;;9.43;100.00
57801;BME280;43627;42.728;23.256;2023-05-23T01:21:17;94865.56;;;9.52;100.00
57801;BME280;43627;42.728;23.256;2023-05-23T01:24:14;94874.31;;;9.56;100.00
57801;BME280;43627;42.728;23.256;2023-05-23T01:27:23;94867.84;;;9.54;100.00
57801;BME280;43627;42.728;23.256;2023-05-23T01:29:57;94867.38;;;9.46;100.00
57801;BME280;43627;42.728;23.256;2023-05-23T01:32:27;94870.56;;;9.44;100.00
57801;BME280;43627;42.728;23.256;2023-05-23T01:34:55;94857.91;;;9.32;100.00
57801;BME280;43627;42.728;23.256;2023-05-23T01:37:22;94860.63;;;9.32;100.00
57801;BME280;43627;42.728;23.256;2023-05-23T01:39:49;94850.78;;;9.26;100.00
57801;BME280;43627;42.728;23.256;2023-05-23T01:42:16;94852.47;;;9.32;100.00
57801;BME280;43627;42.728;23.256;2023-05-23T01:44:44;94862.56;;;9.41;100.00
57801;BME280;43627;42.728;23.256;2023-05-23T01:47:12;94856.19;;;9.53;100.00
57801;BME280;43627;42.728;23.256;2023-05-23T01:49:40;94852.25;;;9.54;100.00
57801;BME280;43627;42.728;23.256;2023-05-23T01:52:07;94852.69;;;9.62;100.00
57801;BME280;43627;42.728;23.256;2023-05-23T01:54:37;94844.25;;;9.51;100.00
57801;BME280;43627;42.728;23.256;2023-05-23T01:57:05;94858.88;;;9.62;100.00
57801;BME280;43627;42.728;23.256;2023-05-23T01:59:32;94851.78;;;9.56;100.00
57801;BME280;43627;42.728;23.256;2023-05-23T02:01:58;94854.63;;;9.70;100.00
57801;BME280;43627;42.728;23.256;2023-05-23T02:04:27;94850.88;;;9.68;100.00
57801;BME280;43627;42.728;23.256;2023-05-23T02:06:53;94854.94;;;9.72;100.00
57801;BME280;43627;42.728;23.256;2023-05-23T02:09:20;94850.84;;;9.77;100.00
57801;BME280;43627;42.728;23.256;2023-05-23T02:11:47;94853.38;;;9.81;100.00
57801;BME280;43627;42.728;23.256;2023-05-23T02:14:13;94853.06;;;9.88;100.00
57801;BME280;43627;42.728;23.256;2023-05-23T02:16:40;94851.25;;;9.85;100.00
57801;BME280;43627;42.728;23.256;2023-05-23T02:19:07;94858.97;;;9.86;100.00
57801;BME280;43627;42.728;23.256;2023-05-23T02:21:34;94854.25;;;9.96;100.00
57801;BME280;43627;42.728;23.256;2023-05-23T02:24:01;94853.03;;;9.97;100.00
57801;BME280;43627;42.728;23.256;2023-05-23T02:26:27;94843.66;;;9.98;100.00
57801;BME280;43627;42.728;23.256;2023-05-23T02:28:54;94840.50;;;9.90;100.00
57801;BME280;43627;42.728;23.256;2023-05-23T02:31:21;94849.84;;;9.98;100.00
57801;BME280;43627;42.728;23.256;2023-05-23T02:33:48;94856.94;;;10.05;100.00
57801;BME280;43627;42.728;23.256;2023-05-23T02:36:15;94852.69;;;10.04;100.00
57801;BME280;43627;42.728;23.256;2023-05-23T02:38:42;94843.78;;;9.94;100.00
57801;BME280;43627;42.728;23.256;2023-05-23T02:41:10;94849.22;;;10.03;100.00
57801;BME280;43627;42.728;23.256;2023-05-23T02:43:37;94846.19;;;10.01;100.00
57801;BME280;43627;42.728;23.256;2023-05-23T02:46:04;94829.44;;;9.94;100.00
57801;BME280;43627;42.728;23.256;2023-05-23T02:48:31;94844.22;;;10.02;100.00
57801;BME280;43627;42.728;23.256;2023-05-23T02:50:58;94856.06;;;9.99;100.00
57801;BME280;43627;42.728;23.256;2023-05-23T02:53:25;94863.31;;;9.93;100.00
57801;BME280;43627;42.728;23.256;2023-05-23T02:55:52;94856.53;;;9.88;100.00
57801;BME280;43627;42.728;23.256;2023-05-23T02:58:19;94851.72;;;9.83;100.00
57801;BME280;43627;42.728;23.256;2023-05-23T03:00:46;94836.47;;;9.77;100.00
57801;BME280;43627;42.728;23.256;2023-05-23T03:03:12;94855.75;;;9.97;100.00
57801;BME280;43627;42.728;23.256;2023-05-23T03:05:39;94857.56;;;10.00;100.00
57801;BME280;43627;42.728;23.256;2023-05-23T03:08:07;94863.22;;;9.87;100.00
57801;BME280;43627;42.728;23.256;2023-05-23T03:10:34;94845.19;;;9.90;100.00
57801;BME280;43627;42.728;23.256;2023-05-23T03:13:01;94839.28;;;9.91;100.00
57801;BME280;43627;42.728;23.256;2023-05-23T03:15:28;94845.34;;;9.95;100.00
57801;BME280;43627;42.728;23.256;2023-05-23T03:17:55;94844.13;;;9.96;100.00
57801;BME280;43627;42.728;23.256;2023-05-23T03:20:21;94858.09;;;10.13;100.00
57801;BME280;43627;42.728;23.256;2023-05-23T03:22:48;94861.41;;;10.17;100.00
57801;BME280;43627;42.728;23.256;2023-05-23T03:25:15;94854.44;;;10.25;100.00
57801;BME280;43627;42.728;23.256;2023-05-23T03:27:42;94865.16;;;10.29;100.00
57801;BME280;43627;42.728;23.256;2023-05-23T03:30:09;94868.22;;;10.22;100.00
57801;BME280;43627;42.728;23.256;2023-05-23T03:32:36;94866.41;;;10.19;100.00
57801;BME280;43627;42.728;23.256;2023-05-23T03:35:03;94862.44;;;10.29;100.00
57801;BME280;43627;42.728;23.256;2023-05-23T03:37:30;94872.13;;;10.21;100.00
57801;BME280;43627;42.728;23.256;2023-05-23T03:39:56;94867.84;;;10.05;100.00
57801;BME280;43627;42.728;23.256;2023-05-23T03:42:23;94885.81;;;10.12;100.00
57801;BME280;43627;42.728;23.256;2023-05-23T03:44:50;94879.28;;;10.18;100.00
57801;BME280;43627;42.728;23.256;2023-05-23T03:47:16;94880.31;;;10.21;100.00
57801;BME280;43627;42.728;23.256;2023-05-23T03:49:43;94872.78;;;10.16;100.00
57801;BME280;43627;42.728;23.256;2023-05-23T03:52:10;94893.22;;;10.11;100.00
57801;BME280;43627;42.728;23.256;2023-05-23T03:54:37;94876.31;;;10.07;100.00
57801;BME280;43627;42.728;23.256;2023-05-23T03:57:04;94875.38;;;10.10;100.00
57801;BME280;43627;42.728;23.256;2023-05-23T03:59:31;94859.66;;;10.05;100.00
57801;BME280;43627;42.728;23.256;2023-05-23T04:01:57;94896.31;;;9.95;100.00
57801;BME280;43627;42.728;23.256;2023-05-23T04:04:26;94885.25;;;9.98;100.00
57801;BME280;43627;42.728;23.256;2023-05-23T04:06:53;94863.66;;;9.95;100.00
57801;BME280;43627;42.728;23.256;2023-05-23T04:09:20;94894.41;;;10.19;100.00
57801;BME280;43627;42.728;23.256;2023-05-23T04:11:47;94891.09;;;10.15;100.00
57801;BME280;43627;42.728;23.256;2023-05-23T04:14:14;94897.91;;;10.11;100.00
57801;BME280;43627;42.728;23.256;2023-05-23T04:16:40;94885.94;;;10.17;100.00
57801;BME280;43627;42.728;23.256;2023-05-23T04:19:07;94888.94;;;10.28;100.00
57801;BME280;43627;42.728;23.256;2023-05-23T04:21:34;94888.50;;;10.21;100.00
57801;BME280;43627;42.728;23.256;2023-05-23T04:24:01;94882.28;;;10.29;100.00
57801;BME280;43627;42.728;23.256;2023-05-23T04:26:28;94878.22;;;10.16;100.00
57801;BME280;43627;42.728;23.256;2023-05-23T04:28:55;94874.88;;;10.21;100.00
57801;BME280;43627;42.728;23.256;2023-05-23T04:31:23;94875.31;;;10.28;100.00
57801;BME280;43627;42.728;23.256;2023-05-23T04:33:50;94884.88;;;10.24;100.00
57801;BME280;43627;42.728;23.256;2023-05-23T04:36:22;94883.81;;;10.54;100.00
57801;BME280;43627;42.728;23.256;2023-05-23T04:38:51;94797.09;;;9.87;100.00
57801;BME280;43627;42.728;23.256;2023-05-23T04:41:22;94911.25;;;10.75;100.00
57801;BME280;43627;42.728;23.256;2023-05-23T04:43:49;94903.38;;;10.77;100.00
57801;BME280;43627;42.728;23.256;2023-05-23T04:46:20;94887.41;;;10.84;100.00
57801;BME280;43627;42.728;23.256;2023-05-23T04:49:07;94815.44;;;10.10;100.00
57801;BME280;43627;42.728;23.256;2023-05-23T04:51:35;94870.72;;;10.44;100.00
57801;BME280;43627;42.728;23.256;2023-05-23T04:54:04;94839.22;;;10.43;100.00
57801;BME280;43627;42.728;23.256;2023-05-23T04:56:35;94905.41;;;10.91;100.00
57801;BME280;43627;42.728;23.256;2023-05-23T04:59:05;94873.28;;;10.71;100.00
57801;BME280;43627;42.728;23.256;2023-05-23T05:01:36;94863.63;;;10.61;100.00
57801;BME280;43627;42.728;23.256;2023-05-23T05:04:07;94907.13;;;11.03;100.00
57801;BME280;43627;42.728;23.256;2023-05-23T05:06:34;94846.16;;;10.68;100.00
57801;BME280;43627;42.728;23.256;2023-05-23T05:09:04;94806.72;;;10.54;100.00
57801;BME280;43627;42.728;23.256;2023-05-23T05:11:31;94868.19;;;11.03;100.00
57801;BME280;43627;42.728;23.256;2023-05-23T05:14:05;94809.41;;;10.78;100.00
57801;BME280;43627;42.728;23.256;2023-05-23T05:16:32;94910.69;;;11.33;100.00
57801;BME280;43627;42.728;23.256;2023-05-23T05:19:00;94858.50;;;11.02;100.00
57801;BME280;43627;42.728;23.256;2023-05-23T05:21:28;94892.06;;;11.32;100.00
57801;BME280;43627;42.728;23.256;2023-05-23T05:23:56;94912.75;;;11.24;100.00
57801;BME280;43627;42.728;23.256;2023-05-23T05:26:23;94868.59;;;10.86;100.00
57801;BME280;43627;42.728;23.256;2023-05-23T05:28:51;94916.25;;;11.39;100.00
57801;BME280;43627;42.728;23.256;2023-05-23T05:31:21;94893.66;;;11.38;100.00
57801;BME280;43627;42.728;23.256;2023-05-23T05:33:49;94915.47;;;11.24;100.00
57801;BME280;43627;42.728;23.256;2023-05-23T05:36:25;94824.25;;;10.38;100.00
57801;BME280;43627;42.728;23.256;2023-05-23T05:38:52;94809.41;;;10.39;100.00
57801;BME280;43627;42.728;23.256;2023-05-23T05:41:22;94907.00;;;10.98;100.00
57801;BME280;43627;42.728;23.256;2023-05-23T05:43:51;94925.41;;;11.12;100.00
57801;BME280;43627;42.728;23.256;2023-05-23T05:46:19;94922.63;;;11.21;100.00
57801;BME280;43627;42.728;23.256;2023-05-23T05:48:52;94871.91;;;11.29;100.00
57801;BME280;43627;42.728;23.256;2023-05-23T05:51:19;94905.09;;;11.66;100.00
57801;BME280;43627;42.728;23.256;2023-05-23T05:53:47;94809.69;;;11.19;100.00
57801;BME280;43627;42.728;23.256;2023-05-23T05:56:21;94851.03;;;11.70;100.00
57801;BME280;43627;42.728;23.256;2023-05-23T05:58:51;94865.22;;;11.74;100.00
57801;BME280;43627;42.728;23.256;2023-05-23T06:01:19;94888.97;;;12.13;100.00
57801;BME280;43627;42.728;23.256;2023-05-23T06:03:52;94931.38;;;12.73;100.00
57801;BME280;43627;42.728;23.256;2023-05-23T06:06:20;94870.63;;;12.69;100.00
57801;BME280;43627;42.728;23.256;2023-05-23T06:08:50;94939.75;;;13.04;100.00
57801;BME280;43627;42.728;23.256;2023-05-23T06:11:17;94931.00;;;13.00;100.00
57801;BME280;43627;42.728;23.256;2023-05-23T06:13:48;94918.41;;;13.08;100.00
57801;BME280;43627;42.728;23.256;2023-05-23T06:16:16;94839.31;;;12.90;100.00
57801;BME280;43627;42.728;23.256;2023-05-23T06:18:44;94819.06;;;12.82;100.00
57801;BME280;43627;42.728;23.256;2023-05-23T06:21:18;94926.16;;;13.77;100.00
57801;BME280;43627;42.728;23.256;2023-05-23T06:23:46;94899.50;;;13.77;100.00
57801;BME280;43627;42.728;23.256;2023-05-23T06:26:13;94913.03;;;14.12;100.00
57801;BME280;43627;42.728;23.256;2023-05-23T06:28:43;94929.97;;;14.42;100.00
57801;BME280;43627;42.728;23.256;2023-05-23T06:31:14;94925.28;;;14.48;100.00
57801;BME280;43627;42.728;23.256;2023-05-23T06:33:42;94932.19;;;14.75;100.00
57801;BME280;43627;42.728;23.256;2023-05-23T06:36:12;94909.34;;;14.90;100.00
57801;BME280;43627;42.728;23.256;2023-05-23T06:38:47;94948.16;;;15.20;100.00
57801;BME280;43627;42.728;23.256;2023-05-23T06:41:15;94894.69;;;15.09;100.00
57801;BME280;43627;42.728;23.256;2023-05-23T06:43:43;94819.97;;;14.83;100.00
57801;BME280;43627;42.728;23.256;2023-05-23T06:46:16;94944.59;;;15.62;100.00
57801;BME280;43627;42.728;23.256;2023-05-23T06:48:55;94814.09;;;14.58;100.00
57801;BME280;43627;42.728;23.256;2023-05-23T06:51:40;94814.34;;;14.55;100.00
57801;BME280;43627;42.728;23.256;2023-05-23T06:54:08;94908.31;;;15.47;100.00
57801;BME280;43627;42.728;23.256;2023-05-23T06:56:48;94913.16;;;15.80;100.00
57801;BME280;43627;42.728;23.256;2023-05-23T06:59:15;94920.97;;;16.04;100.00
57801;BME280;43627;42.728;23.256;2023-05-23T07:01:51;94888.69;;;15.98;100.00
57801;BME280;43627;42.728;23.256;2023-05-23T07:04:20;94799.16;;;15.36;100.00
57801;BME280;43627;42.728;23.256;2023-05-23T07:06:52;94854.94;;;16.15;100.00
57801;BME280;43627;42.728;23.256;2023-05-23T07:09:20;94916.44;;;16.79;100.00
57801;BME280;43627;42.728;23.256;2023-05-23T07:11:48;94837.88;;;16.72;100.00
57801;BME280;43627;42.728;23.256;2023-05-23T07:14:15;94902.34;;;17.05;100.00
57801;BME280;43627;42.728;23.256;2023-05-23T07:16:45;94889.44;;;16.72;100.00
57801;BME280;43627;42.728;23.256;2023-05-23T07:19:25;94894.88;;;16.94;100.00
57801;BME280;43627;42.728;23.256;2023-05-23T07:22:02;94843.34;;;16.67;100.00
57801;BME280;43627;42.728;23.256;2023-05-23T07:24:29;94845.41;;;16.49;100.00
57801;BME280;43627;42.728;23.256;2023-05-23T07:26:58;94891.31;;;17.05;100.00
57801;BME280;43627;42.728;23.256;2023-05-23T07:29:29;94813.38;;;16.46;100.00
57801;BME280;43627;42.728;23.256;2023-05-23T07:32:02;94852.47;;;17.14;100.00
57801;BME280;43627;42.728;23.256;2023-05-23T07:34:29;94876.28;;;17.17;100.00
57801;BME280;43627;42.728;23.256;2023-05-23T07:36:56;94882.63;;;17.48;100.00
57801;BME280;43627;42.728;23.256;2023-05-23T07:39:23;94875.69;;;17.35;100.00
57801;BME280;43627;42.728;23.256;2023-05-23T07:41:50;94856.34;;;17.47;100.00
57801;BME280;43627;42.728;23.256;2023-05-23T07:44:18;94865.59;;;17.90;100.00
57801;BME280;43627;42.728;23.256;2023-05-23T07:46:50;94877.44;;;18.21;100.00
57801;BME280;43627;42.728;23.256;2023-05-23T07:49:17;94871.06;;;18.32;100.00
57801;BME280;43627;42.728;23.256;2023-05-23T07:51:44;94853.84;;;18.20;100.00
57801;BME280;43627;42.728;23.256;2023-05-23T07:54:11;94866.59;;;18.53;100.00
57801;BME280;43627;42.728;23.256;2023-05-23T07:56:41;94848.66;;;18.90;100.00
57801;BME280;43627;42.728;23.256;2023-05-23T07:59:09;94873.16;;;19.42;100.00
57801;BME280;43627;42.728;23.256;2023-05-23T08:01:35;94877.50;;;19.37;100.00
57801;BME280;43627;42.728;23.256;2023-05-23T08:04:03;94842.16;;;19.30;100.00
57801;BME280;43627;42.728;23.256;2023-05-23T08:06:30;94865.38;;;19.40;100.00
57801;BME280;43627;42.728;23.256;2023-05-23T08:08:57;94854.59;;;19.61;100.00
57801;BME280;43627;42.728;23.256;2023-05-23T08:11:29;94847.25;;;19.64;100.00
57801;BME280;43627;42.728;23.256;2023-05-23T08:13:56;94833.22;;;19.62;99.69
57801;BME280;43627;42.728;23.256;2023-05-23T08:16:27;94861.69;;;19.76;96.88
57801;BME280;43627;42.728;23.256;2023-05-23T08:18:54;94871.97;;;19.94;97.36
57801;BME280;43627;42.728;23.256;2023-05-23T08:21:21;94869.88;;;20.00;99.09
57801;BME280;43627;42.728;23.256;2023-05-23T08:23:48;94874.00;;;20.25;94.21
57801;BME280;43627;42.728;23.256;2023-05-23T08:26:15;94851.75;;;20.31;96.58
57801;BME280;43627;42.728;23.256;2023-05-23T08:28:42;94873.22;;;20.12;97.77
57801;BME280;43627;42.728;23.256;2023-05-23T08:31:09;94862.97;;;20.07;96.47
57801;BME280;43627;42.728;23.256;2023-05-23T08:33:37;94868.16;;;20.29;96.34
57801;BME280;43627;42.728;23.256;2023-05-23T08:36:04;94858.38;;;20.41;95.46
57801;BME280;43627;42.728;23.256;2023-05-23T08:38:30;94858.22;;;20.52;93.78
57801;BME280;43627;42.728;23.256;2023-05-23T08:41:00;94866.47;;;20.39;97.90
57801;BME280;43627;42.728;23.256;2023-05-23T08:43:27;94844.09;;;19.92;99.95
57801;BME280;43627;42.728;23.256;2023-05-23T08:45:54;94846.13;;;20.37;96.29
57801;BME280;43627;42.728;23.256;2023-05-23T08:48:24;94842.59;;;20.23;89.71
57801;BME280;43627;42.728;23.256;2023-05-23T08:50:52;94852.34;;;20.43;87.50
57801;BME280;43627;42.728;23.256;2023-05-23T08:53:20;94831.09;;;20.32;88.81
57801;BME280;43627;42.728;23.256;2023-05-23T08:55:49;94853.88;;;20.25;89.12
57801;BME280;43627;42.728;23.256;2023-05-23T08:58:21;94844.25;;;20.13;86.49
57801;BME280;43627;42.728;23.256;2023-05-23T09:00:51;94848.13;;;20.23;82.24
57801;BME280;43627;42.728;23.256;2023-05-23T09:03:19;94834.63;;;20.33;79.89
57801;BME280;43627;42.728;23.256;2023-05-23T09:05:47;94831.06;;;20.64;84.03
57801;BME280;43627;42.728;23.256;2023-05-23T09:08:15;94839.69;;;20.74;77.62
57801;BME280;43627;42.728;23.256;2023-05-23T09:10:42;94806.31;;;20.40;73.56
57801;BME280;43627;42.728;23.256;2023-05-23T09:13:09;94832.88;;;20.75;79.04
57801;BME280;43627;42.728;23.256;2023-05-23T09:15:35;94835.34;;;21.05;78.42
57801;BME280;43627;42.728;23.256;2023-05-23T09:18:03;94826.56;;;21.41;74.18
57801;BME280;43627;42.728;23.256;2023-05-23T09:20:30;94816.88;;;21.34;74.74
57801;BME280;43627;42.728;23.256;2023-05-23T09:22:57;94831.53;;;21.55;69.38
57801;BME280;43627;42.728;23.256;2023-05-23T09:25:23;94816.38;;;21.56;69.00
57801;BME280;43627;42.728;23.256;2023-05-23T09:27:51;94817.72;;;21.29;62.39
57801;BME280;43627;42.728;23.256;2023-05-23T09:30:18;94811.66;;;21.30;69.84
57801;BME280;43627;42.728;23.256;2023-05-23T09:32:57;94807.50;;;21.24;63.64
57801;BME280;43627;42.728;23.256;2023-05-23T09:35:30;94813.53;;;21.22;60.47
57801;BME280;43627;42.728;23.256;2023-05-23T09:37:57;94811.09;;;21.32;52.63
57801;BME280;43627;42.728;23.256;2023-05-23T09:40:30;94805.94;;;21.49;53.16
57801;BME280;43627;42.728;23.256;2023-05-23T09:43:02;94802.13;;;21.39;50.95
57801;BME280;43627;42.728;23.256;2023-05-23T09:45:30;94804.94;;;21.60;49.33
57801;BME280;43627;42.728;23.256;2023-05-23T09:47:58;94796.31;;;21.63;50.32
57801;BME280;43627;42.728;23.256;2023-05-23T09:50:30;94770.66;;;21.71;51.93
57801;BME280;43627;42.728;23.256;2023-05-23T09:52:59;94799.66;;;21.83;50.69
57801;BME280;43627;42.728;23.256;2023-05-23T09:55:26;94812.22;;;21.84;48.25
57801;BME280;43627;42.728;23.256;2023-05-23T09:57:53;94793.09;;;21.93;48.41
57801;BME280;43627;42.728;23.256;2023-05-23T10:00:23;94794.09;;;22.24;47.51
57801;BME280;43627;42.728;23.256;2023-05-23T10:03:09;94775.56;;;21.99;46.34
57801;BME280;43627;42.728;23.256;2023-05-23T10:05:47;94802.41;;;21.83;47.03
57801;BME280;43627;42.728;23.256;2023-05-23T10:08:20;94796.03;;;22.09;47.61
57801;BME280;43627;42.728;23.256;2023-05-23T10:11:08;94790.47;;;22.30;46.65
57801;BME280;43627;42.728;23.256;2023-05-23T10:13:43;94796.66;;;22.43;45.95
57801;BME280;43627;42.728;23.256;2023-05-23T10:16:15;94805.38;;;21.64;45.72
57801;BME280;43627;42.728;23.256;2023-05-23T10:18:48;94779.19;;;21.73;46.53
57801;BME280;43627;42.728;23.256;2023-05-23T10:21:23;94785.19;;;22.18;46.79
57801;BME280;43627;42.728;23.256;2023-05-23T10:23:50;94786.53;;;22.53;42.70
57801;BME280;43627;42.728;23.256;2023-05-23T10:26:17;94778.13;;;22.38;43.61
57801;BME280;43627;42.728;23.256;2023-05-23T10:28:45;94791.53;;;22.27;43.89
57801;BME280;43627;42.728;23.256;2023-05-23T10:31:12;94777.72;;;22.63;43.05
57801;BME280;43627;42.728;23.256;2023-05-23T10:33:44;94767.63;;;22.80;42.63
57801;BME280;43627;42.728;23.256;2023-05-23T10:36:22;94775.91;;;22.94;39.99
57801;BME280;43627;42.728;23.256;2023-05-23T10:39:15;94776.59;;;22.58;41.00
57801;BME280;43627;42.728;23.256;2023-05-23T10:41:52;94778.50;;;22.42;40.24
57801;BME280;43627;42.728;23.256;2023-05-23T10:44:28;94769.88;;;22.53;40.55
57801;BME280;43627;42.728;23.256;2023-05-23T10:46:58;94760.09;;;22.60;40.57
57801;BME280;43627;42.728;23.256;2023-05-23T10:49:45;94752.16;;;22.64;41.16
57801;BME280;43627;42.728;23.256;2023-05-23T10:52:13;94767.34;;;22.92;40.56
57801;BME280;43627;42.728;23.256;2023-05-23T10:57:23;94748.00;;;22.50;40.29
57801;BME280;43627;42.728;23.256;2023-05-23T10:59:52;94764.53;;;22.84;39.84
57801;BME280;43627;42.728;23.256;2023-05-23T11:02:27;94750.47;;;22.90;38.95
57801;BME280;43627;42.728;23.256;2023-05-23T11:05:22;94767.84;;;22.54;40.58
57801;BME280;43627;42.728;23.256;2023-05-23T11:11:00;94755.25;;;23.25;40.07
57801;BME280;43627;42.728;23.256;2023-05-23T11:16:39;94745.19;;;22.78;40.20
57801;BME280;43627;42.728;23.256;2023-05-23T11:21:53;94737.66;;;22.87;40.89
57801;BME280;43627;42.728;23.256;2023-05-23T11:24:21;94687.44;;;22.48;39.61
57801;BME280;43627;42.728;23.256;2023-05-23T11:26:56;94742.78;;;22.83;41.24
57801;BME280;43627;42.728;23.256;2023-05-23T11:29:28;94723.09;;;23.09;39.79
57801;BME280;43627;42.728;23.256;2023-05-23T11:31:56;94743.41;;;22.89;40.11
57801;BME280;43627;42.728;23.256;2023-05-23T11:34:26;94740.03;;;23.26;39.14
57801;BME280;43627;42.728;23.256;2023-05-23T11:36:56;94683.63;;;23.03;38.35
57801;BME280;43627;42.728;23.256;2023-05-23T11:39:23;94725.97;;;23.40;39.42
57801;BME280;43627;42.728;23.256;2023-05-23T11:42:02;94710.78;;;23.33;39.21
57801;BME280;43627;42.728;23.256;2023-05-23T11:44:29;94709.34;;;22.96;39.32
57801;BME280;43627;42.728;23.256;2023-05-23T11:47:05;94711.06;;;22.70;40.04
57801;BME280;43627;42.728;23.256;2023-05-23T11:49:37;94676.03;;;22.31;41.20
57801;BME280;43627;42.728;23.256;2023-05-23T11:52:05;94737.00;;;22.65;40.68
57801;BME280;43627;42.728;23.256;2023-05-23T11:54:32;94726.81;;;23.04;40.87
57801;BME280;43627;42.728;23.256;2023-05-23T11:57:00;94713.63;;;23.63;39.22
57801;BME280;43627;42.728;23.256;2023-05-23T11:59:29;94709.63;;;23.28;39.95
57801;BME280;43627;42.728;23.256;2023-05-23T12:01:58;94720.91;;;22.43;39.55
57801;BME280;43627;42.728;23.256;2023-05-23T12:04:25;94715.19;;;22.77;37.99
57801;BME280;43627;42.728;23.256;2023-05-23T12:06:53;94711.16;;;23.37;39.09
57801;BME280;43627;42.728;23.256;2023-05-23T12:09:20;94702.88;;;23.60;38.06
57801;BME280;43627;42.728;23.256;2023-05-23T12:11:47;94717.66;;;23.47;36.15
57801;BME280;43627;42.728;23.256;2023-05-23T12:14:16;94697.63;;;23.49;37.04
57801;BME280;43627;42.728;23.256;2023-05-23T12:16:44;94694.69;;;24.23;35.70
57801;BME280;43627;42.728;23.256;2023-05-23T12:19:15;94686.81;;;24.75;35.47
57801;BME280;43627;42.728;23.256;2023-05-23T12:21:49;94685.22;;;24.49;36.46
57801;BME280;43627;42.728;23.256;2023-05-23T12:26:57;94697.69;;;24.10;38.59
57801;BME280;43627;42.728;23.256;2023-05-23T12:29:33;94701.75;;;23.63;37.90
57801;BME280;43627;42.728;23.256;2023-05-23T12:32:02;94691.00;;;23.82;37.37
57801;BME280;43627;42.728;23.256;2023-05-23T12:34:29;94668.53;;;24.11;37.23
57801;BME280;43627;42.728;23.256;2023-05-23T12:36:58;94649.78;;;24.19;37.10
57801;BME280;43627;42.728;23.256;2023-05-23T12:39:43;94674.69;;;23.71;38.52
57801;BME280;43627;42.728;23.256;2023-05-23T12:42:10;94675.78;;;23.91;38.93
57801;BME280;43627;42.728;23.256;2023-05-23T12:44:40;94671.91;;;23.71;37.31
57801;BME280;43627;42.728;23.256;2023-05-23T12:47:07;94681.34;;;23.76;37.22
57801;BME280;43627;42.728;23.256;2023-05-23T12:49:34;94653.28;;;23.43;38.03
57801;BME280;43627;42.728;23.256;2023-05-23T12:52:01;94666.53;;;23.88;37.56
57801;BME280;43627;42.728;23.256;2023-05-23T12:54:28;94675.97;;;23.85;36.55
57801;BME280;43627;42.728;23.256;2023-05-23T12:56:55;94673.31;;;23.49;35.51
57801;BME280;43627;42.728;23.256;2023-05-23T12:59:21;94669.75;;;23.18;36.79
57801;BME280;43627;42.728;23.256;2023-05-23T13:01:49;94661.59;;;22.69;36.83
57801;BME280;43627;42.728;23.256;2023-05-23T13:04:16;94656.78;;;23.13;37.17
57801;BME280;43627;42.728;23.256;2023-05-23T13:06:43;94660.72;;;23.41;36.77
57801;BME280;43627;42.728;23.256;2023-05-23T13:09:10;94651.03;;;23.26;35.79
57801;BME280;43627;42.728;23.256;2023-05-23T13:11:36;94647.47;;;23.11;36.62
57801;BME280;43627;42.728;23.256;2023-05-23T13:14:03;94657.53;;;23.36;36.42